Aeroporto :
LOGIN :

Iscrizione | Disclaimer

   EN    FR    IT 

 










Sommario :    VFR   VFR Marginale   IFR   IFR Intensivo   IFR Molto Intensivo
Visibilità : 
Base nubi : 
>= 8 km
>= 3000ft
5 / 8 km
1000 / 3000 ft
1500m / 5 km
500 / 1000 ft
800 / 1500m
200 / 500 ft
< 800m
< 200 ft
Simboli :   Temporali  Nebbia  Neve Forte  Precipitazioni Forti  Vento > 20 kt
SIGMETs :   Varie  Temporali  Ghiacco  Turbolenza  Onda orograficha  Ceneri Vulcaniche







- Altitudine del aeroporto : 587 ft
- Codice IATA : XCR
- Carte del aeroporto


LFOK - Chalons Vatry

ULTIMO METAR :
  • 230630Z AUTO 04006KT 5000 BR NSC 04/02 Q1029 TEMPO 1200 BR OVC003

METARs OBSOLETI :
  • 230600Z AUTO 03006KT 7000 NSC 04/01 Q1028 BECMG 1200 BR OVC002
  • 230530Z AUTO 03005KT 7000 NSC 03/01 Q1028 BECMG 1200 BR OVC002
  • 230500Z AUTO 05004KT 8000 NSC 03/00 Q1028 BECMG 1200 BR OVC002
  • 230430Z AUTO 28002KT CAVOK 05/M00 Q1028 BECMG 1200 BR OVC002
  • 230400Z AUTO 00000KT CAVOK 06/01 Q1028 BECMG 1200 BR OVC002

TAF TAF LFOK
Valido dal 23 a 06 ore il 24 a 06 ore UTC


230500Z 2306/2406 03006KT 7000 NSC
TEMPO 2306/2309 1200 BR OVC003
BECMG 2322/2324 3000 BR
Nessun NOTAM noto per questo aeroporto.



MetMap, La meteo Aeronautica in un colpo d'occhio ! - Copyright ORBIFLY Dicembre 2007 - Disclaimer

ORBIFLY MET'MAP TEAM :

Programmazione e sviluppo : Alexandra Zaïnal
Concezione e sviluppo : Baudouin d'Aumeries
Co-Programmazione e sviluppo : Marc-Olivier Méhu
Supporto tecnico e logistico : Manuel Goepfert
Aiuto per la traduzione : Arnaldo La Scala

Contatto : metmap@orbifly.com




FONTI E CREDITI :

   NOAA